Terminal Aerodrome Forecast
Issued by NWS

Home | Current Version | Previous Version | Text Only | Print | Product List | Glossary On
Versions: 1 2 3 4 5 6 7 8 9 10 11 12 13 14 15 16
000
FTUS42 TJSJ 032325
TAFNCM
TAF
TNCM 032325Z 0400/0424 09014G25KT P6SM VCSH BKN019
     FM041330 08015KT P6SM SCT025
     FM042300 09012KT P6SM VCSH FEW018 SCT050=

USA.gov is the U.S. government's official web portal to all federal, state and local government web resources and services.